Time;durP1;ratioP1;P1;durP2;ratioP2;P2;SDS_P1;SDS_P2;PMS_P1;PMS_P2;Temp;Humidity;BMP_temperature;BMP_pressure;BME280_temperature;BME280_humidity;BME280_pressure;Samples;Min_cycle;Max_cycle;Signal;HPM_P1;HPM_P2
2020/12/17 00:33:42;;;;;;;7.95;3.17;;;9.70;99.90;;;;;;5157660;24;20030;31
2020/12/17 01:31:53;;;;;;;9.30;3.15;;;;;;;;;;4763047;30;20048;-96
2020/12/17 02:05:57;;;;;;;9.43;2.13;;;;;;;;;;4811751;29;20049;-95
2020/12/17 02:10:07;;;;;;;;;;;;;;;;;;;;;
2020/12/17 03:07:19;;;;;;;10.30;2.63;;;;;;;;;;4512373;24;20030;-93
2020/12/17 03:10:31;;;;;;;5.03;2.00;;;;;;;;;;4694142;30;20045;-95
2020/12/17 03:25:31;;;;;;;8.65;2.40;;;;;;;;;;4732615;30;20061;-94
2020/12/17 03:29:18;;;;;;;11.93;2.20;;;;;;;;;;4724344;30;20045;-95
2020/12/17 03:32:15;;;;;;;8.60;2.15;;;;;;;;;;4733913;30;20064;-95
2020/12/17 03:35:30;;;;;;;12.85;2.55;;;;;;;;;;4726336;30;20371;-96
2020/12/17 03:38:51;;;;;;;18.60;3.78;;;;;;;;;;4736556;30;20556;-95
2020/12/17 03:45:44;;;;;;;7.53;3.33;;;;;;;;;;4712028;30;20045;-94
2020/12/17 03:49:50;;;;;;;8.90;1.98;;;8.10;99.90;;;;;;4750353;30;20394;-96
2020/12/17 04:14:36;;;;;;;8.27;2.70;;;;;;;;;;4787787;30;20071;-94
2020/12/17 04:18:25;;;;;;;5.18;1.75;;;;;;;;;;4783533;30;20030;-94
2020/12/17 04:24:20;;;;;;;8.27;2.42;;;;;;;;;;4771786;24;20052;-95
2020/12/17 04:28:08;;;;;;;7.88;2.60;;;7.90;99.90;;;;;;4831030;24;20506;-95
2020/12/17 04:32:02;;;;;;;5.35;2.60;;;;;;;;;;4768602;30;20060;-94
2020/12/17 04:56:37;;;;;;;5.28;2.60;;;;;;;;;;4748444;30;20067;-95
2020/12/17 05:00:41;;;;;;;5.55;2.38;;;;;;;;;;4748312;30;20060;-95
2020/12/17 05:04:05;;;;;;;9.27;2.65;;;7.60;99.90;;;;;;4750249;30;20055;-96
2020/12/17 05:10:53;;;;;;;7.03;2.33;;;;;;;;;;4781341;30;20048;-94
2020/12/17 05:20:37;;;;;;;8.43;2.17;;;;;;;;;;4801663;24;20056;-95
2020/12/17 05:24:12;;;;;;;6.55;1.98;;;;;;;;;;4743201;30;20064;-96
2020/12/17 05:27:30;;;;;;;5.30;1.92;;;;;;;;;;4752920;30;20067;-96
2020/12/17 05:30:54;;;;;;;3.72;1.85;;;;;;;;;;4962902;24;20043;-95
2020/12/17 05:40:35;;;;;;;9.07;2.38;;;7.60;99.90;;;;;;4843821;24;20031;-96
2020/12/17 05:43:47;;;;;;;4.43;2.20;;;;;;;;;;4752639;30;20063;-94
2020/12/17 05:47:06;;;;;;;9.15;2.05;;;;;;;;;;4772008;30;20063;-96
2020/12/17 05:50:50;;;;;;;10.18;2.55;;;;;;;;;;4756198;30;20057;-95
2020/12/17 05:58:44;;;;;;;9.48;2.75;;;;;;;;;;4784161;30;20040;-96
2020/12/17 06:09:15;;;;;;;10.75;2.65;;;;;;;;;;4819127;24;20051;-94
2020/12/17 06:12:47;;;;;;;9.45;2.78;;;;;;;;;;5213067;24;20041;-94
2020/12/17 06:33:37;;;;;;;18.60;3.75;;;7.70;99.90;;;;;;5464522;24;19924;31
2020/12/17 06:37:42;;;;;;;6.00;1.50;;;;;;;;;;4113079;24;20033;-96
2020/12/17 07:19:30;;;;;;;8.38;2.83;;;;;;;;;;4757578;30;20041;-96
2020/12/17 07:22:52;;;;;;;7.95;3.03;;;;;;;;;;4201859;24;20429;-96
2020/12/17 07:29:43;;;;;;;12.57;2.97;;;;;;;;;;4750822;30;20063;-94
2020/12/17 07:33:05;;;;;;;12.48;3.63;;;;;;;;;;4774637;30;20044;-94
2020/12/17 07:36:09;;;;;;;14.00;4.78;;;;;;;;;;4750967;30;20224;-95
2020/12/17 07:39:10;;;;;;;5.57;3.13;;;;;;;;;;4750526;30;20061;-95
2020/12/17 07:42:22;;;;;;;14.05;4.60;;;;;;;;;;4766194;30;20064;-95
2020/12/17 07:45:58;;;;;;;10.85;3.55;;;7.60;99.90;;;;;;4751141;30;20040;-92
2020/12/17 07:51:51;;;;;;;10.02;3.15;;;;;;;;;;4761311;30;20063;-94
2020/12/17 07:55:09;;;;;;;10.68;3.55;;;;;;;;;;4777838;30;20135;-95
2020/12/17 07:57:58;;;;;;;9.52;2.83;;;;;;;;;;4756998;30;20505;-94
2020/12/17 08:01:24;;;;;;;11.48;3.42;;;;;;;;;;4786887;30;20054;-94
2020/12/17 08:04:36;;;;;;;6.68;2.30;;;;;;;;;;4776977;30;20055;-92
2020/12/17 08:12:31;;;;;;;11.13;2.92;;;;;;;;;;4717034;30;20050;-95
2020/12/17 08:19:19;;;;;;;15.77;2.70;;;;;;;;;;4706906;30;20053;-94
2020/12/17 08:22:51;;;;;;;12.50;3.42;;;7.60;99.90;;;;;;4696934;30;20038;-95
2020/12/17 08:26:01;;;;;;;4.72;2.63;;;;;;;;;;4722056;30;20057;-95
2020/12/17 08:32:38;;;;;;;15.40;2.50;;;;;;;;;;5090024;24;20051;31
2020/12/17 08:36:50;;;;;;;16.77;3.83;;;;;;;;;;4733520;30;20067;-94
2020/12/17 08:40:31;;;;;;;9.55;2.67;;;;;;;;;;4830019;24;20052;-95
2020/12/17 08:43:49;;;;;;;7.95;2.65;;;;;;;;;;4790854;24;20066;-95
2020/12/17 08:47:09;;;;;;;13.55;3.00;;;;;;;;;;4729875;30;20064;-93
2020/12/17 08:50:21;;;;;;;11.38;3.05;;;;;;;;;;4752900;30;20048;-93
2020/12/17 08:53:24;;;;;;;16.27;2.70;;;;;;;;;;4746665;30;20056;-93
2020/12/17 08:56:24;;;;;;;5.88;2.90;;;;;;;;;;4740899;30;20049;-93
2020/12/17 08:59:48;;;;;;;6.20;3.30;;;;;;;;;;4755640;30;20055;-93
2020/12/17 09:02:38;;;;;;;12.50;3.28;;;;;;;;;;4757672;30;20047;-94
2020/12/17 09:05:22;;;;;;;7.32;2.42;;;;;;;;;;4750965;24;20069;-93
2020/12/17 09:08:13;;;;;;;7.05;2.80;;;;;;;;;;4761066;30;20493;-94
2020/12/17 09:10:58;;;;;;;10.70;4.63;;;;;;;;;;4773623;30;20070;-93
2020/12/17 09:13:46;;;;;;;10.35;2.58;;;;;;;;;;4758780;30;20052;-92
2020/12/17 09:17:08;;;;;;;12.65;2.78;;;;;;;;;;4747778;30;20056;-93
2020/12/17 09:20:15;;;;;;;13.80;2.35;;;;;;;;;;4758826;30;20064;-92
2020/12/17 09:23:42;;;;;;;14.25;3.17;;;;;;;;;;4768865;30;20036;-94
2020/12/17 09:27:17;;;;;;;;;;;8.40;99.90;;;;;;4742936;30;20060;-93
2020/12/17 09:30:55;;;;;;;4.63;1.75;;;;;;;;;;4724129;30;19933;-93
2020/12/17 09:34:11;;;;;;;9.07;2.22;;;;;;;;;;4698305;30;20193;-92
2020/12/17 09:42:23;;;;;;;7.18;2.92;;;;;;;;;;4727328;30;20049;-93
2020/12/17 09:46:04;;;;;;;11.23;2.53;;;8.60;99.90;;;;;;4687746;30;20058;-94
2020/12/17 09:49:01;;;;;;;17.45;2.88;;;;;;;;;;4732376;24;21438;-93
2020/12/17 09:52:57;;;;;;;12.23;2.10;;;8.70;99.90;;;;;;4778487;30;20070;-93
2020/12/17 09:56:17;;;;;;;9.98;2.65;;;8.90;99.90;;;;;;4785905;30;20055;-94
2020/12/17 09:59:35;;;;;;;3.88;2.17;;;;;;;;;;4761531;30;20047;-93
2020/12/17 10:02:29;;;;;;;9.32;3.40;;;;;;;;;;4749828;30;20051;-94
2020/12/17 10:05:20;;;;;;;6.78;2.35;;;;;;;;;;4783603;30;20062;-94
2020/12/17 10:08:37;;;;;;;4.00;1.52;;;;;;;;;;4782757;29;20055;-95
2020/12/17 10:18:29;;;;;;;;;;;8.90;99.90;;;;;;4772446;30;20047;-93
2020/12/17 10:21:44;;;;;;;7.00;2.15;;;8.90;99.90;;;;;;4793565;30;19930;-92
2020/12/17 10:29:05;;;;;;;13.70;3.15;;;9.10;99.90;;;;;;4790317;30;20047;-92
2020/12/17 10:32:07;;;;;;;10.93;3.17;;;;;;;;;;4770307;30;20054;-93
2020/12/17 10:39:26;;;;;;;6.72;3.03;;;9.40;99.90;;;;;;4789195;24;20039;-93
2020/12/17 10:42:22;;;;;;;13.90;2.90;;;;;;;;;;4763553;30;20082;-92
2020/12/17 10:45:11;;;;;;;17.15;4.28;;;;;;;;;;4755344;30;20063;-91
2020/12/17 10:48:00;;;;;;;8.65;2.38;;;;;;;;;;4770418;30;20059;-93
2020/12/17 10:50:58;;;;;;;6.13;2.25;;;;;;;;;;4789320;30;20055;-94
2020/12/17 10:53:57;;;;;;;6.63;2.10;;;;;;;;;;4788424;30;20070;-94
2020/12/17 10:57:35;;;;;;;9.23;2.00;;;9.60;99.90;;;;;;4778776;30;20057;-93
2020/12/17 11:00:41;;;;;;;;;;;9.90;99.90;;;;;;4773871;30;20078;-95
2020/12/17 11:03:45;;;;;;;5.88;2.35;;;;;;;;;;4740217;30;19922;-94
2020/12/17 11:06:39;;;;;;;13.30;2.88;;;;;;;;;;4758840;30;20040;-94
2020/12/17 11:09:40;;;;;;;10.82;2.67;;;;;;;;;;4771691;30;20058;-95
2020/12/17 11:12:54;;;;;;;7.15;3.05;;;9.80;99.90;;;;;;4779197;30;20076;-94
2020/12/17 11:15:45;;;;;;;6.53;2.42;;;;;;;;;;4769170;30;20401;-94
2020/12/17 11:18:44;;;;;;;15.63;2.83;;;;;;;;;;4733496;30;20051;-93
2020/12/17 11:21:29;;;;;;;13.43;2.63;;;;;;;;;;4749755;30;20047;-92
2020/12/17 11:24:14;;;;;;;18.05;2.15;;;;;;;;;;4777656;30;20043;-92
2020/12/17 11:26:45;;;;;;;9.82;2.25;;;;;;;;;;4768268;30;20048;-94
2020/12/17 11:30:12;;;;;;;13.55;2.97;;;;;;;;;;4768244;30;20412;-92
2020/12/17 11:33:11;;;;;;;7.65;2.15;;;;;;;;;;4779267;30;20056;-92
2020/12/17 11:35:55;;;;;;;12.48;4.35;;;;;;;;;;4761735;30;20059;-93
2020/12/17 11:38:42;;;;;;;16.42;3.80;;;;;;;;;;4756235;30;20055;-94
2020/12/17 11:41:17;;;;;;;11.77;2.42;;;;;;;;;;4768441;30;20063;-93
2020/12/17 11:44:13;;;;;;;9.02;3.38;;;;;;;;;;4760908;30;20058;-94
2020/12/17 11:46:50;;;;;;;13.73;2.90;;;;;;;;;;4763016;30;20062;-93
2020/12/17 11:49:46;;;;;;;12.50;2.28;;;;;;;;;;4759990;30;20262;-94
2020/12/17 11:53:08;;;;;;;17.40;5.22;;;10.30;99.90;;;;;;4756527;30;20042;-94
2020/12/17 11:55:58;;;;;;;4.85;2.50;;;;;;;;;;4766964;30;20077;-93
2020/12/17 11:58:47;;;;;;;23.02;5.78;;;;;;;;;;4776633;30;20048;-92
2020/12/17 12:01:28;;;;;;;12.38;2.60;;;;;;;;;;4768202;30;20060;-93
2020/12/17 12:04:45;;;;;;;16.05;4.10;;;;;;;;;;4755148;30;20060;-92
2020/12/17 12:07:48;;;;;;;8.98;2.42;;;;;;;;;;4774928;30;20070;-94
2020/12/17 12:10:48;;;;;;;10.25;2.13;;;;;;;;;;4755880;30;20057;-93
2020/12/17 12:14:03;;;;;;;12.07;2.80;;;10.60;99.90;;;;;;4785201;24;20059;-93
2020/12/17 12:17:20;;;;;;;11.85;3.10;;;;;;;;;;4763944;30;20060;-93
2020/12/17 12:20:09;;;;;;;13.80;5.95;;;;;;;;;;4732883;30;20060;-94
2020/12/17 12:22:48;;;;;;;16.98;4.72;;;;;;;;;;4747174;30;20063;-90
2020/12/17 12:30:02;;;;;;;12.20;3.25;;;10.90;99.90;;;;;;4761219;30;20060;-92
2020/12/17 12:32:52;;;;;;;13.73;3.42;;;;;;;;;;4774329;24;20063;31
2020/12/17 12:36:06;;;;;;;12.52;2.75;;;;;;;;;;4743376;30;20409;-93
2020/12/17 12:39:17;;;;;;;9.88;2.47;;;;;;;;;;4747407;30;20049;-91
2020/12/17 12:42:13;;;;;;;21.20;3.60;;;;;;;;;;4742487;30;20079;-91
2020/12/17 12:45:26;;;;;;;12.55;4.60;;;;;;;;;;4773522;24;20044;-91
2020/12/17 13:02:46;;;;;;;5.55;1.90;;;11.00;99.90;;;;;;4578490;28;20040;-92
2020/12/17 13:05:19;;;;;;;14.48;3.35;;;;;;;;;;4747204;30;20048;-89
2020/12/17 13:08:35;;;;;;;12.15;3.55;;;;;;;;;;4775990;30;20060;-93
2020/12/17 13:11:07;;;;;;;11.20;5.72;;;;;;;;;;4762434;30;20066;-91
2020/12/17 13:13:53;;;;;;;5.72;1.88;;;;;;;;;;4772532;30;20062;-93
2020/12/17 13:17:04;;;;;;;13.60;3.35;;;;;;;;;;4765185;30;20059;-91
2020/12/17 13:19:48;;;;;;;5.95;3.20;;;;;;;;;;4745780;30;20069;-91
2020/12/17 13:22:43;;;;;;;12.55;3.42;;;;;;;;;;4754385;30;20052;-93
2020/12/17 13:25:20;;;;;;;9.07;3.10;;;;;;;;;;4823344;24;20044;-92
2020/12/17 13:28:14;;;;;;;3.80;2.03;;;;;;;;;;4796722;24;20030;-92
2020/12/17 13:30:58;;;;;;;10.13;1.88;;;;;;;;;;4768649;30;20061;-92
2020/12/17 13:33:44;;;;;;;11.68;2.95;;;;;;;;;;4747209;30;20067;-93
2020/12/17 13:50:29;;;;;;;18.50;4.25;;;;;;;;;;4868981;24;20043;-95
2020/12/17 14:17:02;;;;;;;6.85;2.60;;;;;;;;;;4772644;30;20065;-92
2020/12/17 14:26:18;;;;;;;12.20;3.45;;;;;;;;;;5003123;24;20036;-92
2020/12/17 14:30:05;;;;;;;16.08;3.20;;;;;;;;;;4998639;24;20051;-96
2020/12/17 14:39:58;;;;;;;13.40;5.47;;;;;;;;;;5053508;24;20626;-94
2020/12/17 14:42:50;;;;;;;16.05;2.97;;;;;;;;;;4913068;24;20409;-90
2020/12/17 14:45:23;;;;;;;13.93;4.03;;;;;;;;;;4751198;30;20058;-87
2020/12/17 14:51:04;;;;;;;15.32;4.35;;;;;;;;;;4810216;24;20048;-91
2020/12/17 14:54:08;;;;;;;9.38;4.38;;;11.30;99.90;;;;;;4751653;30;20059;-90
2020/12/17 15:04:12;;;;;;;12.32;4.03;;;;;;;;;;4842577;24;20043;-94
2020/12/17 15:07:40;;;;;;;14.65;5.97;;;10.90;99.90;;;;;;4799886;30;20052;-93
2020/12/17 15:10:40;;;;;;;16.83;3.40;;;;;;;;;;4747043;30;20055;-92
2020/12/17 15:13:31;;;;;;;11.63;3.75;;;;;;;;;;4762668;30;20064;-93
2020/12/17 15:16:01;;;;;;;21.80;5.60;;;;;;;;;;4745338;30;20063;-92
2020/12/17 15:18:51;;;;;;;16.33;6.72;;;;;;;;;;4754571;30;20062;-92
2020/12/17 15:34:52;;;;;;;6.82;3.28;;;;;;;;;;5000555;24;19926;-92
2020/12/17 16:27:11;;;;;;;26.70;6.00;;;;;;;;;;5086737;24;20039;-89
2020/12/17 17:15:52;;;;;;;14.30;5.47;;;;;;;;;;5718847;24;19924;-92
2020/12/17 17:42:24;;;;;;;13.77;4.50;;;10.30;99.90;;;;;;5208036;24;20063;-94
2020/12/17 18:20:55;;;;;;;14.45;4.15;;;;;;;;;;6369618;22;20002;-93
2020/12/17 18:43:29;;;;;;;23.70;6.10;;;;;;;;;;6311953;22;20088;-92
2020/12/17 18:51:11;;;;;;;10.15;4.70;;;;;;;;;;6341655;22;20074;-92
2020/12/17 18:59:07;;;;;;;23.55;4.50;;;;;;;;;;6196910;23;20108;-92
2020/12/17 19:03:40;;;;;;;19.67;4.18;;;10.20;99.90;;;;;;6158499;23;20005;-93
2020/12/17 19:07:48;;;;;;;20.73;3.88;;;;;;;;;;6109633;23;20027;-94
2020/12/17 19:11:47;;;;;;;16.38;3.25;;;;;;;;;;6102543;23;20066;-93
2020/12/17 19:15:24;;;;;;;12.98;3.45;;;;;;;;;;6224480;22;20028;-94
2020/12/17 19:25:49;;;;;;;16.95;6.40;;;10.20;99.90;;;;;;6321056;22;20023;-94
2020/12/17 22:18:52;;;;;;;;;;;;;;;;;;;;;
2020/12/17 23:31:05;;;;;;;20.40;3.67;;;;;;;;;;6254998;22;20027;-90
2020/12/17 23:34:38;;;;;;;6.65;2.13;;;;;;;;;;6284881;22;20007;-92
2020/12/17 23:39:06;;;;;;;10.20;3.85;;;;;;;;;;6270265;22;20060;-94
2020/12/17 23:46:12;;;;;;;10.23;2.63;;;;;;;;;;6295437;22;19929;-93
